Date,TemperatureHighF,TemperatureAvgF,TemperatureLowF,DewpointHighF,DewpointAvgF,DewpointLowF,HumidityHigh,HumidityAvg,HumidityLow,PressureMaxIn,PressureMinIn,WindSpeedMaxMPH,WindSpeedAvgMPH,GustSpeedMaxMPH,PrecipitationSumIn
2013-1-1,14.5,7.6,-5.2,10.5,2.3,-9.0,86,79,57,30.27,30.08,16,6,22,0.00
2013-1-2,17.1,15.5,13.6,13.9,12.2,9.9,95,87,83,30.08,29.99,14,4,18,0.00
2013-1-3,22.8,18.2,13.8,17.0,12.8,7.7,89,80,63,30.18,29.90,25,7,36,0.00
2013-1-4,34.4,22.5,14.4,22.1,15.7,10.2,89,76,56,30.16,29.90,33,5,33,0.01
2013-1-5,32.9,21.0,12.6,21.1,15.7,9.7,91,81,56,30.15,29.86,13,2,18,0.00
2013-1-6,26.2,22.0,13.6,21.4,16.4,9.0,87,79,68,30.19,29.94,18,3,24,0.00
2013-1-7,36.3,27.6,17.4,25.1,20.0,7.2,81,73,63,30.06,29.79,27,12,37,0.00
2013-1-8,39.1,29.1,19.7,29.2,23.5,17.0,90,80,59,30.02,29.72,23,6,30,0.01
2013-1-9,34.2,30.7,24.6,28.1,23.0,18.1,83,73,63,30.35,29.76,28,10,39,0.00
2013-1-10,44.0,35.5,24.4,32.7,19.2,13.7,91,55,29,30.36,29.75,28,9,28,0.20
2013-1-11,41.8,37.7,35.2,40.5,36.2,32.7,95,94,91,29.76,29.36,17,5,25,0.04
2013-1-12,43.6,24.9,12.2,41.9,20.3,6.5,95,82,74,30.01,29.32,30,11,38,0.01
2013-1-13,12.3,8.4,5.3,7.0,3.5,1.0,84,80,74,30.21,29.99,14,5,21,0.00
2013-1-14,9.9,5.9,2.8,3.4,1.0,-1.3,84,80,71,30.40,30.21,15,6,19,0.00
2013-1-15,26.2,16.8,6.4,18.6,9.1,0.8,85,72,52,30.37,29.80,20,9,30,0.00
2013-1-16,27.7,20.8,7.8,24.0,14.4,-0.6,91,76,61,30.19,29.56,23,6,33,0.00
2013-1-17,8.2,3.0,-2.4,0.4,-3.2,-6.8,83,75,67,30.42,30.19,12,3,16,0.00
2013-1-18,19.9,13.0,0.8,16.1,9.4,-4.8,90,85,76,30.39,29.80,13,2,22,0.00
2013-1-19,32.5,19.0,2.0,28.2,15.2,-2.5,92,85,71,30.06,29.57,22,6,31,0.00
2013-1-20,2.3,-1.1,-5.0,-2.8,-7.0,-10.1,83,76,66,30.33,30.06,14,6,18,0.00
2013-1-21,-4.5,-11.4,-14.9,-10.1,-18.3,-21.5,78,70,60,30.33,30.22,17,8,20,0.00
2013-1-22,-0.2,-9.0,-18.8,-11.6,-16.5,-24.3,77,69,57,30.44,30.32,14,5,15,0.00
2013-1-23,7.1,-2.2,-8.8,1.9,-7.1,-14.1,83,79,70,30.63,30.16,15,4,22,0.00
2013-1-24,7.5,-1.3,-15.7,2.3,-7.4,-20.3,83,75,60,30.75,30.28,15,3,22,0.00
2013-1-25,16.6,11.3,4.9,10.4,6.7,1.9,87,82,74,30.28,29.97,17,4,23,0.00
2013-1-26,19.8,13.5,3.1,11.7,7.5,-0.4,96,77,67,30.42,30.22,22,3,23,0.00
2013-1-27,34.4,26.3,18.3,26.7,19.4,10.6,94,75,56,30.23,29.86,23,8,28,0.00
2013-1-28,35.2,28.9,25.0,30.6,26.8,23.5,95,92,82,29.92,29.70,7,1,14,0.20
2013-1-29,31.8,30.2,26.5,30.4,28.4,23.2,96,93,86,29.72,29.51,13,1,13,0.04
2013-1-30,26.5,16.7,8.6,23.4,13.4,5.6,90,87,79,29.71,29.56,9,2,12,0.00
2013-1-31,8.6,5.2,-1.3,5.8,1.3,-5.5,93,84,79,30.16,29.64,14,4,18,0.00
2013-2-1,-0.1,-6.8,-16.8,-6.2,-13.3,-21.8,81,73,64,30.30,30.16,13,5,17,0.00
2013-2-2,12.1,2.2,-11.4,1.3,-4.7,-15.6,83,73,57,30.24,30.01,10,2,13,0.00
2013-2-3,9.3,3.4,-5.3,1.6,-2.6,-9.7,92,76,60,30.07,29.96,14,4,21,0.00
2013-2-4,14.5,5.7,-4.0,2.4,-4.1,-9.6,85,64,43,30.10,29.84,17,3,22,0.00
2013-2-5,19.8,12.2,1.6,13.2,7.8,-1.6,90,82,67,30.11,29.68,18,4,28,0.00
2013-2-6,20.1,13.5,-1.8,18.5,9.9,-6.2,96,85,70,30.18,30.09,11,2,15,0.00
2013-2-7,23.4,20.5,18.6,20.9,18.1,15.1,93,90,83,30.33,30.15,11,1,16,0.00
2013-2-8,23.9,17.3,7.7,16.3,12.7,4.9,92,82,65,30.43,30.30,9,1,17,0.06
2013-2-9,23.8,20.0,17.1,19.9,15.8,7.8,93,84,65,30.31,30.06,29,8,34,0.00
2013-2-10,32.0,26.4,21.1,30.2,24.7,19.4,96,93,89,30.07,29.31,9,2,14,0.00
2013-2-11,30.4,25.0,19.9,29.4,23.0,16.9,96,92,86,29.96,29.30,10,1,16,0.01
2013-2-12,27.0,21.5,15.7,23.0,18.1,12.3,89,86,83,29.98,29.74,16,6,21,0.02
2013-2-13,38.4,28.9,22.1,30.4,24.2,18.9,92,83,67,29.74,29.61,11,3,17,0.27
2013-2-14,28.2,19.8,5.9,24.3,16.3,1.6,94,86,74,30.11,29.67,6,1,10,0.00
2013-2-15,14.3,10.1,5.6,7.8,4.2,1.2,86,77,59,30.27,30.11,14,3,21,0.00
2013-2-16,15.6,4.5,-7.4,3.3,-2.2,-11.7,92,75,52,30.25,30.21,6,1,11,0.00
2013-2-17,25.7,14.3,-1.7,14.2,5.2,-6.1,85,68,52,30.22,29.78,23,8,31,0.00
2013-2-18,31.3,25.6,17.5,25.9,20.7,14.1,93,81,70,29.78,29.50,25,7,29,0.00
2013-2-19,17.5,5.8,0.2,14.7,2.0,-3.5,92,84,79,30.32,29.63,13,3,19,0.00
2013-2-20,15.0,7.7,-1.4,9.9,3.7,-4.8,87,83,76,30.54,30.32,5,1,11,0.01
2013-2-21,24.4,14.5,-4.0,16.9,10.1,-7.6,90,83,67,30.56,30.24,12,2,16,0.00
2013-2-22,25.8,21.9,17.7,23.5,19.8,15.2,94,91,89,30.24,29.83,4,0,7,0.00
2013-2-23,29.8,25.6,19.2,27.0,23.8,17.5,94,93,87,29.93,29.79,5,0,6,0.00
2013-2-24,32.3,27.1,17.5,27.3,23.7,14.8,95,87,74,30.10,29.93,6,1,10,0.01
2013-2-25,32.4,25.3,12.3,26.9,21.4,9.9,100,85,76,30.14,30.08,12,3,14,0.01
2013-2-26,37.7,27.1,11.4,29.7,22.9,8.9,94,84,65,30.12,29.95,9,1,13,0.14
2013-2-27,30.1,29.1,27.4,27.0,25.7,24.4,91,87,79,30.02,29.89,14,3,17,0.00
2013-2-28,27.4,23.5,20.6,24.6,19.9,16.4,91,86,82,30.30,30.02,16,3,16,0.00
2013-3-1,23.1,19.5,6.8,17.6,14.7,4.0,88,81,73,30.41,30.29,12,2,17,0.00
2013-3-2,25.8,11.2,-2.4,13.4,4.0,-5.8,98,74,45,30.39,30.25,5,0,9,0.00
2013-3-3,30.0,14.6,-2.4,14.8,6.5,-6.5,89,72,41,30.25,30.13,7,1,10,0.01
2013-3-4,35.5,24.5,11.3,21.7,11.8,2.9,88,61,26,30.16,30.08,10,2,16,0.00
2013-3-5,28.5,24.3,20.5,21.0,17.3,10.9,91,75,57,30.28,30.07,9,2,13,0.00
2013-3-6,28.7,21.1,12.4,17.9,15.3,8.5,91,79,57,30.39,30.27,10,1,13,0.01
2013-3-7,32.4,18.0,4.2,19.6,11.9,1.2,92,78,56,30.46,30.37,6,1,7,0.00
2013-3-8,43.1,31.7,21.8,28.7,22.6,15.0,80,69,55,30.42,30.17,19,7,25,0.00
2013-3-9,35.1,33.0,29.9,33.2,29.2,22.7,95,86,70,30.17,29.75,19,6,25,0.24
2013-3-10,34.4,31.2,27.9,33.1,28.7,23.7,96,90,84,29.99,29.76,7,2,14,0.01
2013-3-11,27.9,24.5,21.6,25.1,22.2,19.1,95,91,86,29.91,29.73,11,3,19,0.00
2013-3-12,22.7,19.9,16.2,18.8,16.9,13.3,92,88,79,30.12,29.78,12,2,15,0.00
2013-3-13,31.0,19.5,9.4,12.9,7.8,3.7,87,62,34,30.34,30.12,12,2,14,0.04
2013-3-14,36.2,26.6,8.4,27.7,17.6,3.5,83,69,43,30.28,30.00,16,5,19,0.03
2013-3-15,33.5,24.1,14.3,27.1,18.7,11.7,89,80,70,30.03,29.95,14,2,17,0.00
2013-3-16,22.1,15.4,8.2,13.2,8.6,-0.7,89,75,59,30.26,30.00,18,3,21,0.03
2013-3-17,27.9,13.3,-7.2,10.0,-0.3,-11.2,84,58,31,30.33,30.00,27,3,27,0.01
2013-3-18,29.7,23.0,17.3,26.2,18.3,10.0,89,82,64,30.00,29.52,23,8,28,0.01
2013-3-19,24.1,17.2,11.0,15.6,8.2,3.6,92,69,49,30.04,29.55,31,12,31,0.00
2013-3-20,17.1,11.6,5.1,8.9,4.5,-0.2,92,73,64,30.14,30.03,19,6,21,0.00
2013-3-21,26.8,16.7,8.9,13.6,9.6,4.8,87,74,55,30.12,30.06,11,2,13,0.00
2013-3-22,29.1,18.1,5.6,22.3,13.6,2.6,89,82,71,30.14,30.08,5,0,7,0.01
2013-3-23,31.9,23.1,9.9,22.5,17.9,7.3,92,81,65,30.21,30.14,7,1,11,0.00
2013-3-24,29.4,23.1,14.0,26.4,19.3,11.5,99,85,78,30.18,30.04,8,2,12,0.01
2013-3-25,31.9,23.3,10.9,26.0,19.5,8.3,93,86,66,30.22,30.05,5,1,15,0.02
2013-3-26,38.0,30.1,23.5,26.2,23.0,20.7,91,76,50,30.28,30.21,6,0,14,0.01
2013-3-27,41.3,32.8,23.0,24.3,20.2,16.2,83,61,41,30.33,30.28,5,0,10,0.00
2013-3-28,44.4,32.2,17.3,21.8,18.0,12.8,83,58,36,30.36,30.28,5,0,10,0.00
2013-3-29,49.4,38.3,23.0,27.8,22.1,16.4,77,54,36,30.32,30.09,18,4,19,0.00
2013-3-30,45.5,39.8,36.4,38.8,34.8,25.6,94,83,56,30.10,29.75,17,6,23,0.35
2013-3-31,40.0,31.9,23.0,34.6,22.3,11.3,90,68,47,29.99,29.66,20,4,26,0.01
2013-4-1,30.2,24.0,18.6,15.8,11.3,9.1,84,59,42,30.17,29.99,18,4,28,0.00
2013-4-2,33.6,25.9,17.1,16.8,12.8,10.2,75,59,39,30.36,30.20,13,2,19,0.00
2013-4-3,42.4,28.8,9.7,24.0,12.2,5.6,83,53,27,30.43,30.01,28,7,36,0.00
2013-4-4,44.0,38.4,26.6,33.3,25.4,18.0,73,60,44,30.14,29.93,28,6,33,0.00
2013-4-5,38.9,29.4,17.6,27.6,19.5,14.8,89,68,41,30.28,30.09,10,1,16,0.00
2013-4-6,37.0,32.5,30.5,33.8,30.0,27.7,96,90,81,30.09,29.58,21,3,26,0.18
2013-4-7,39.0,33.5,29.1,32.4,30.2,27.4,96,88,71,29.94,29.66,7,0,12,0.20
2013-4-8,38.4,34.1,30.1,37.4,32.9,28.8,97,96,94,30.05,29.79,7,0,11,0.22
2013-4-9,36.8,33.4,29.7,33.2,28.0,20.5,97,82,55,30.21,30.06,16,2,19,0.00
2013-4-10,36.9,32.1,27.4,27.6,24.1,16.9,91,72,52,30.25,30.08,14,2,19,0.00
2013-4-11,31.7,28.8,25.5,27.2,23.6,17.4,94,81,56,30.08,29.80,12,3,19,0.02
2013-4-12,32.3,27.7,24.9,29.0,25.9,23.4,95,93,86,29.81,29.71,7,1,12,0.30
2013-4-13,33.1,26.5,19.7,28.0,23.2,17.8,94,88,76,30.00,29.80,9,2,12,0.34
2013-4-14,40.0,29.4,14.5,31.4,24.0,12.4,95,82,54,30.03,29.67,15,2,23,0.08
2013-4-15,38.7,35.5,32.5,34.1,30.0,26.7,96,81,68,29.86,29.55,25,9,31,0.50
2013-4-16,43.7,36.0,27.4,31.6,28.3,24.2,91,74,50,30.37,29.86,14,4,19,0.01
2013-4-17,38.6,32.8,27.0,30.2,27.9,23.9,95,82,68,30.41,30.05,11,1,12,0.00
2013-4-18,31.9,30.8,29.1,30.9,29.8,28.0,96,96,95,30.05,29.36,11,2,19,0.14
2013-4-19,29.2,25.5,18.4,28.2,24.0,16.4,96,94,91,29.95,29.32,10,3,15,0.07
2013-4-20,32.4,21.9,6.6,23.6,16.5,4.1,92,80,54,30.40,29.95,11,1,17,0.58
2013-4-21,38.5,32.9,24.2,35.6,26.7,15.8,92,78,66,30.41,30.07,25,8,32,0.47
2013-4-22,44.6,37.1,30.9,37.3,30.0,20.8,96,78,42,30.24,30.09,11,2,20,0.02
2013-4-23,40.1,32.5,27.2,31.5,27.0,19.2,96,82,46,30.11,30.01,11,1,14,0.54
2013-4-24,45.0,33.1,20.9,33.5,23.9,15.6,94,70,48,30.02,29.86,20,4,26,0.05
2013-4-25,45.7,37.5,28.8,30.9,26.4,21.5,93,67,39,30.18,29.92,15,5,20,0.01
2013-4-26,63.2,47.4,36.2,41.3,35.1,27.3,88,64,44,30.16,30.01,19,6,26,0.09
2013-4-27,68.3,55.8,37.3,45.6,39.2,33.2,87,56,33,30.12,29.87,14,4,18,0.00
2013-4-28,69.4,58.7,49.3,52.7,46.0,43.4,94,65,42,29.88,29.65,20,7,25,0.21
2013-4-29,70.2,53.3,39.4,51.5,43.7,38.4,96,73,42,29.77,29.61,9,1,13,0.01
2013-4-30,77.5,62.0,51.4,59.2,48.4,29.1,94,64,34,29.84,29.39,26,8,31,0.00
2013-5-1,53.8,39.1,31.4,39.2,33.8,29.1,100,83,48,30.48,29.85,10,1,13,0.20
2013-5-2,31.6,29.7,28.4,29.8,28.3,26.9,96,95,93,30.56,30.46,6,1,7,0.11
2013-5-3,29.9,28.9,27.6,28.8,27.6,26.4,96,95,93,30.46,30.24,6,1,9,0.00
2013-5-4,35.4,32.5,29.9,34.3,31.6,28.8,100,96,95,30.26,30.21,4,0,6,0.55
2013-5-5,43.1,35.8,30.8,39.6,34.0,29.5,97,94,82,30.24,30.14,3,0,7,0.27
2013-5-6,65.2,46.0,29.4,47.4,38.3,28.4,97,77,51,30.16,30.04,5,0,7,0.00
2013-5-7,74.6,59.0,36.8,47.5,43.0,34.7,93,59,31,30.07,29.93,7,1,11,0.00
2013-5-8,78.1,63.2,48.8,53.2,45.7,39.1,91,55,30,30.01,29.93,16,2,20,0.01
2013-5-9,50.8,38.5,30.9,47.1,35.8,27.8,96,90,72,30.19,29.96,12,2,16,0.35
2013-5-10,50.2,39.2,27.6,34.1,28.9,23.7,96,69,40,30.19,29.86,6,1,12,0.00
2013-5-11,46.1,38.1,33.5,34.5,29.1,23.6,91,71,55,30.10,29.83,19,3,29,0.08
2013-5-12,50.2,38.7,28.4,25.6,22.9,18.9,76,55,30,30.16,30.09,17,2,24,0.00
2013-5-13,57.8,46.7,28.1,35.8,26.0,19.0,77,46,30,30.15,29.68,20,6,27,0.00
2013-5-14,85.3,65.3,48.5,50.9,43.8,35.8,65,48,28,29.76,29.34,25,7,30,0.00
2013-5-15,76.6,64.0,52.6,48.1,43.8,39.4,74,50,28,29.78,29.51,20,5,26,0.00
2013-5-16,66.6,56.9,44.3,47.0,39.7,32.7,87,56,30,30.01,29.77,12,1,13,0.00
2013-5-17,68.6,52.9,38.9,49.8,41.3,35.3,89,67,37,30.09,29.99,12,1,15,0.00
2013-5-18,64.4,57.8,51.2,62.2,54.4,49.6,96,88,73,30.03,29.83,18,4,24,2.15
2013-5-19,73.0,60.2,46.6,62.0,55.8,45.0,97,86,63,29.84,29.68,13,2,18,1.50
2013-5-20,64.1,49.4,40.9,60.4,47.8,39.8,100,94,76,29.70,29.54,10,1,11,0.68
2013-5-21,45.4,40.6,38.0,44.0,39.7,37.2,98,97,93,29.79,29.61,7,1,13,1.91
2013-5-22,47.6,41.4,38.3,47.0,40.5,37.5,98,97,89,30.07,29.77,9,1,16,0.62
2013-5-23,51.6,41.9,32.5,38.9,33.2,29.4,92,73,44,30.36,30.07,13,2,18,0.00
2013-5-24,66.1,47.9,29.5,41.6,34.8,28.1,95,65,31,30.44,30.26,10,1,13,0.00
2013-5-25,66.6,56.0,41.5,46.7,41.5,38.4,90,60,36,30.32,30.24,14,3,17,0.00
2013-5-26,70.2,56.3,40.1,44.2,38.4,34.3,93,55,28,30.30,30.12,15,3,17,0.00
2013-5-27,70.3,58.9,48.2,46.3,41.9,38.2,71,54,38,30.14,29.87,18,3,20,0.00
2013-5-28,65.1,58.1,52.6,53.5,48.0,44.0,91,69,62,29.87,29.69,10,1,11,0.00
2013-5-29,81.2,66.2,55.4,64.5,57.3,52.3,95,75,42,29.79,29.65,17,4,19,0.00
2013-5-30,79.2,69.5,61.6,66.7,63.2,59.3,93,81,57,29.70,29.52,16,5,26,0.22
2013-5-31,79.6,66.9,55.5,64.3,57.0,42.4,92,72,36,29.59,29.48,30,7,37,0.13
2013-6-1,64.3,52.8,40.2,57.5,49.7,39.2,96,89,76,29.87,29.51,11,2,15,0.08
2013-6-2,62.2,47.7,40.2,46.5,40.7,38.5,100,79,43,30.05,29.87,10,1,14,0.04
2013-6-3,62.1,50.6,34.7,43.8,37.8,29.3,95,65,32,30.11,30.01,7,1,12,0.00
2013-6-4,64.5,55.6,48.4,50.6,43.2,28.4,95,64,40,30.15,30.08,12,2,16,0.10
2013-6-5,55.4,50.9,48.1,51.6,49.1,47.0,100,94,85,30.13,30.00,10,1,14,0.83
2013-6-6,52.6,48.7,45.3,51.8,47.6,44.0,100,96,92,30.04,30.00,2,0,6,0.03
2013-6-7,65.3,52.5,39.2,51.0,45.5,38.4,98,79,51,30.05,29.92,6,0,10,0.03
2013-6-8,67.6,58.5,46.6,59.2,52.0,45.5,100,80,55,29.96,29.91,6,1,11,0.14
2013-6-9,62.1,56.8,52.8,58.0,53.0,48.6,96,87,73,29.98,29.83,11,2,17,0.16
2013-6-10,74.2,63.9,55.1,65.1,58.8,53.1,95,84,64,29.83,29.76,12,2,14,0.00
2013-6-11,77.6,66.7,55.9,65.2,58.1,50.9,95,76,48,29.84,29.77,10,1,12,0.00
2013-6-12,79.8,67.3,52.3,56.2,51.2,46.8,88,58,38,29.86,29.74,11,2,15,0.00
2013-6-13,67.9,57.4,45.4,53.1,49.3,43.8,96,76,50,30.11,29.84,10,1,14,0.00
2013-6-14,76.1,59.7,42.8,55.4,48.9,41.7,97,72,37,30.12,29.92,8,1,15,0.04
2013-6-15,69.7,64.3,56.6,65.3,60.6,55.0,95,88,73,29.92,29.76,13,3,19,0.05
2013-6-16,77.8,64.6,55.3,60.3,54.3,50.0,93,71,41,29.86,29.76,15,4,23,0.41
2013-6-17,56.6,51.2,38.9,53.7,48.8,37.6,97,92,81,30.08,29.80,11,1,13,0.03
2013-6-18,69.6,53.3,34.2,52.9,43.8,33.2,97,74,42,30.17,30.05,6,0,13,0.00
2013-6-19,77.0,65.1,49.1,58.7,52.2,42.8,89,64,47,30.08,29.94,17,6,18,0.00
2013-6-20,74.9,66.5,63.4,67.0,61.3,57.1,97,84,70,30.02,29.95,16,4,29,1.03
2013-6-21,66.1,60.1,53.1,65.2,58.9,52.3,100,96,91,30.09,29.76,15,2,27,1.06
2013-6-22,64.0,57.9,53.9,63.4,57.0,53.3,100,97,93,30.05,29.87,7,0,11,0.03
2013-6-23,81.1,69.8,53.7,70.8,63.1,53.2,99,81,59,29.91,29.67,22,5,30,0.00
2013-6-24,81.4,73.1,64.1,69.9,62.9,58.2,92,72,49,29.86,29.74,14,4,18,0.00
2013-6-25,87.4,75.2,65.6,71.1,65.6,61.2,95,75,46,29.78,29.69,10,1,13,0.00
2013-6-26,83.6,71.6,64.4,73.0,67.8,63.5,97,89,67,29.71,29.59,11,2,20,0.15
2013-6-27,82.2,71.5,63.4,68.0,62.4,56.3,98,75,49,29.74,29.64,11,2,17,0.02
2013-6-28,67.4,62.0,55.8,63.5,59.0,54.7,96,90,69,29.76,29.61,7,1,16,0.07
2013-6-29,67.6,59.4,48.1,58.8,53.5,46.5,98,83,55,29.97,29.74,4,0,9,0.00
2013-6-30,79.5,63.3,45.4,59.5,51.3,44.0,96,70,37,30.09,29.97,4,0,10,0.00
2013-7-1,70.9,60.1,42.8,60.3,52.1,40.9,93,76,59,30.19,30.08,4,0,7,0.00
2013-7-2,73.5,56.9,38.9,53.6,44.4,37.6,97,68,34,30.18,30.08,3,0,7,0.00
2013-7-3,80.8,62.9,41.5,61.7,51.1,40.2,96,69,38,30.09,29.94,11,1,16,0.00
2013-7-4,82.1,71.8,60.0,63.9,59.3,54.9,87,66,44,29.95,29.84,18,6,19,0.00
2013-7-5,84.5,75.9,65.5,62.8,60.7,58.0,80,61,42,29.87,29.77,22,8,26,0.00
2013-7-6,84.4,75.1,69.8,73.4,65.4,60.9,91,73,55,29.83,29.77,20,6,25,0.05
2013-7-7,80.7,69.1,52.6,72.2,64.7,51.4,96,87,71,29.93,29.77,14,2,20,1.63
2013-7-8,73.2,60.4,52.3,66.7,58.1,51.5,98,92,77,29.99,29.85,9,0,13,0.06
2013-7-9,77.0,63.8,55.0,71.8,62.4,54.2,98,95,80,29.98,29.73,6,0,13,0.28
2013-7-10,74.4,64.6,56.8,61.8,56.9,54.5,95,78,52,29.99,29.81,11,2,18,0.00
2013-7-11,80.5,67.3,51.6,61.5,56.0,50.5,97,71,42,30.09,29.96,10,1,13,0.00
2013-7-12,83.0,73.4,65.4,63.8,60.3,56.7,79,65,45,30.00,29.86,21,7,28,0.00
2013-7-13,80.3,73.5,64.2,69.0,63.4,58.6,88,71,65,30.05,29.89,23,6,28,0.06
2013-7-14,83.0,71.6,63.3,69.4,64.3,60.8,95,79,54,30.17,30.04,18,4,20,0.08
2013-7-15,85.3,74.8,62.9,71.1,65.7,61.5,96,75,51,30.21,30.13,10,2,13,0.00
2013-7-16,87.8,79.3,71.1,75.3,71.3,65.7,94,78,61,30.14,30.08,17,5,21,0.10
2013-7-17,88.0,80.0,69.7,71.9,70.1,67.3,92,73,54,30.16,30.03,22,5,22,0.00
2013-7-18,89.5,81.3,69.3,74.0,70.8,67.1,94,72,55,30.04,29.60,25,7,29,0.00
2013-7-19,80.9,74.2,66.0,72.6,65.7,56.7,95,76,49,29.76,29.55,18,4,21,0.20
2013-7-20,68.4,60.4,45.1,59.1,51.7,43.2,93,74,50,30.00,29.76,5,0,10,0.00
2013-7-21,72.4,59.5,44.1,60.9,52.7,42.5,95,79,60,30.01,29.83,9,1,12,0.00
2013-7-22,80.4,67.8,57.6,72.5,61.7,51.7,93,82,62,29.83,29.57,22,6,26,0.17
2013-7-23,68.5,59.0,49.6,54.2,50.9,47.8,94,76,52,29.99,29.74,6,0,12,0.00
2013-7-24,71.5,61.9,50.0,56.6,52.6,47.6,95,73,54,30.05,29.93,14,3,17,0.00
2013-7-25,78.4,66.3,57.9,64.3,58.4,53.9,95,77,57,29.94,29.80,15,5,18,0.44
2013-7-26,59.0,53.0,46.3,57.9,51.9,45.2,97,96,94,30.03,29.81,6,0,10,0.19
2013-7-27,54.7,48.9,44.6,51.6,46.8,43.5,97,92,83,30.01,29.85,11,2,18,0.08
2013-7-28,58.6,53.1,48.1,56.5,51.8,47.0,98,95,87,30.03,29.87,10,0,12,0.15
2013-7-29,73.8,59.8,44.8,63.8,53.3,44.0,97,81,53,30.11,30.02,10,0,10,0.01
2013-7-30,69.6,64.3,60.5,61.7,58.8,55.5,94,83,72,30.10,30.00,17,3,18,0.00
2013-7-31,74.0,65.9,58.9,63.9,58.0,51.8,96,78,49,30.00,29.88,19,4,24,0.00
2013-8-1,73.3,63.5,55.2,60.6,54.5,50.8,92,73,54,29.92,29.80,13,2,18,0.00
2013-8-2,72.5,62.9,53.6,59.6,55.0,50.7,95,77,51,29.98,29.77,12,1,15,0.08
2013-8-3,72.8,59.6,47.5,58.6,52.2,46.2,100,79,51,30.17,29.98,7,0,12,0.00
2013-8-4,72.0,59.0,45.7,56.7,51.2,44.6,97,78,50,30.22,30.02,6,1,10,0.00
2013-8-5,69.2,61.4,55.2,64.0,57.9,50.3,96,88,79,30.02,29.75,15,3,15,0.77
2013-8-6,74.5,66.6,60.7,63.1,61.1,58.1,96,83,63,29.76,29.65,13,2,15,0.00
2013-8-7,71.2,62.3,49.8,60.2,54.6,47.9,97,78,47,29.98,29.67,7,0,12,0.00
2013-8-8,69.2,60.0,48.8,60.5,55.1,47.2,95,84,64,30.01,29.93,10,1,15,0.05
2013-8-9,68.1,60.3,52.3,57.7,53.4,50.0,95,79,55,30.07,29.92,14,2,18,0.00
2013-8-10,71.9,60.6,49.4,59.6,54.3,48.0,97,81,57,30.13,30.06,9,1,12,0.00
2013-8-11,75.2,62.9,55.2,63.5,55.6,51.4,95,78,52,30.07,29.96,10,1,11,0.00
2013-8-12,73.8,59.2,44.9,60.4,53.9,43.6,97,84,58,30.07,29.93,11,1,13,0.07
2013-8-13,65.9,53.9,43.7,55.8,48.0,42.6,97,82,56,30.19,30.07,5,0,11,0.01
2013-8-14,70.2,58.3,45.9,55.6,48.2,43.6,94,71,47,30.20,30.07,11,2,12,0.00
2013-8-15,76.6,65.8,56.2,60.6,54.5,48.4,91,69,47,30.08,30.03,13,2,15,0.00
2013-8-16,79.3,67.6,56.9,63.3,55.9,52.7,89,68,41,30.12,30.07,11,2,14,0.00
2013-8-17,78.7,68.4,57.5,60.0,56.8,53.7,88,68,47,30.16,30.04,19,4,22,0.00
2013-8-18,79.1,66.8,59.0,60.0,56.2,53.5,82,70,49,30.11,29.95,18,4,19,0.00
2013-8-19,81.8,71.2,62.2,69.5,63.2,57.5,92,76,64,29.96,29.84,17,7,23,0.68
2013-8-20,86.4,76.3,66.2,72.7,68.4,63.2,90,78,62,29.88,29.78,18,6,21,0.00
2013-8-21,81.4,73.6,60.0,76.0,69.3,58.9,96,87,65,29.97,29.74,19,4,26,0.39
2013-8-22,76.7,65.2,54.0,58.7,54.9,50.3,97,72,41,30.12,29.97,6,0,9,0.01
2013-8-23,80.5,66.3,56.1,64.1,55.0,49.4,90,69,39,30.15,30.03,11,3,16,0.00
2013-8-24,81.8,72.9,64.2,70.4,64.0,58.1,88,74,61,30.09,29.85,24,7,32,0.00
2013-8-25,91.8,81.6,73.4,77.0,72.7,69.6,89,75,57,29.92,29.84,28,8,31,0.00
2013-8-26,85.3,75.9,68.2,76.5,72.2,66.6,96,89,72,29.95,29.83,24,2,39,3.06
2013-8-27,83.1,74.0,67.7,74.7,70.4,66.4,98,89,72,29.89,29.79,2,0,5,0.98
2013-8-28,83.3,72.4,65.0,74.0,68.0,64.4,98,87,55,30.00,29.89,6,0,7,0.02
2013-8-29,80.6,72.3,65.9,72.4,68.3,64.0,96,88,74,30.00,29.73,17,4,25,0.78
2013-8-30,74.9,68.5,58.8,69.8,65.2,57.6,97,89,74,29.92,29.76,13,1,22,0.00
2013-8-31,81.6,69.0,57.4,69.0,62.8,56.6,97,82,59,29.90,29.64,18,3,23,0.17
2013-9-1,73.6,65.2,56.3,63.6,60.6,54.3,93,85,69,29.91,29.63,17,3,19,0.02
2013-9-2,61.1,53.7,48.1,53.8,50.4,46.7,96,89,70,30.06,29.91,8,0,12,0.11
2013-9-3,72.5,59.8,47.3,58.9,52.6,45.8,96,79,58,30.06,29.92,15,4,18,0.01
2013-9-4,67.2,61.1,48.2,59.7,54.9,46.8,95,80,66,30.17,29.94,10,1,17,0.00
2013-9-5,76.6,60.2,45.0,61.0,50.2,42.8,93,72,44,30.27,30.12,11,1,16,0.00
2013-9-6,81.4,69.3,59.0,71.2,62.7,52.0,90,80,68,30.12,29.83,20,7,23,0.01
2013-9-7,80.1,67.7,56.6,72.2,63.1,53.2,96,86,71,30.08,29.81,11,1,16,0.00
2013-9-8,69.3,60.8,48.7,60.1,53.4,46.7,94,78,55,30.13,29.91,7,1,15,0.00
2013-9-9,75.7,65.7,59.4,71.6,63.3,55.4,96,92,79,29.91,29.61,16,2,21,0.08
2013-9-10,74.8,69.5,63.4,68.2,66.2,61.7,97,89,76,29.88,29.66,14,4,17,0.06
2013-9-11,75.3,65.8,54.7,64.7,59.3,53.3,96,81,53,30.00,29.88,16,3,21,0.08
2013-9-12,62.4,54.2,43.3,56.1,49.8,41.5,99,86,61,30.22,29.97,12,0,12,0.01
2013-9-13,63.3,50.3,38.2,50.9,44.5,37.2,97,82,53,30.28,30.09,6,0,9,0.00
2013-9-14,68.6,57.2,47.9,55.2,49.8,43.7,94,77,59,30.09,29.91,16,5,26,0.12
2013-9-15,55.3,49.8,36.0,54.0,48.2,35.0,97,94,81,30.33,29.93,7,1,13,0.15
2013-9-16,63.2,48.4,35.5,50.8,42.1,34.5,97,81,50,30.45,30.29,9,1,15,0.01
2013-9-17,67.6,55.4,43.0,52.5,45.2,36.4,88,70,50,30.29,29.97,16,6,24,0.00
2013-9-18,66.7,61.6,56.8,64.9,59.3,52.5,95,92,84,29.97,29.73,20,4,22,0.02
2013-9-19,75.7,68.3,65.2,70.6,66.0,63.5,96,93,84,29.74,29.58,22,6,31,1.00
2013-9-20,66.3,58.2,47.8,64.8,54.7,45.3,95,88,71,29.82,29.63,14,4,17,0.00
2013-9-21,57.1,48.1,38.6,47.1,42.8,37.0,96,83,61,30.00,29.81,11,1,13,0.04
2013-9-22,61.9,48.5,37.8,50.1,41.4,35.4,93,78,53,30.08,29.96,12,3,19,0.00
2013-9-23,68.7,55.7,45.6,53.6,47.6,42.2,89,75,52,30.02,29.94,20,8,29,0.00
2013-9-24,73.0,57.3,46.4,56.4,49.3,44.2,96,77,46,30.01,29.92,16,4,22,0.00
2013-9-25,73.1,58.3,48.3,59.2,51.8,46.7,95,81,50,29.99,29.91,11,2,13,0.00
2013-9-26,72.2,58.8,45.0,55.0,50.4,43.5,96,76,49,30.01,29.93,17,4,20,0.01
2013-9-27,76.2,67.8,59.0,61.5,55.5,50.4,76,65,53,29.98,29.83,23,8,28,0.00
2013-9-28,73.8,61.7,49.2,62.0,54.0,46.1,93,77,56,29.86,29.55,23,9,32,0.29
2013-9-29,68.7,56.3,46.8,49.6,46.3,43.2,93,71,43,29.93,29.82,16,6,22,0.00
2013-9-30,71.5,62.0,54.7,53.8,49.6,46.8,76,64,52,29.82,29.59,30,10,36,0.00
2013-10-1,71.7,63.5,55.8,55.8,45.9,37.2,77,55,30,29.89,29.54,18,8,28,0.00
2013-10-2,73.5,58.7,47.6,51.8,42.2,35.6,94,58,28,30.02,29.89,9,1,14,0.19
2013-10-3,56.8,52.4,49.5,53.8,51.0,48.4,97,95,88,29.98,29.90,11,0,11,0.33
2013-10-4,56.6,52.1,50.2,53.7,50.8,48.6,98,95,89,30.08,29.98,6,0,12,0.01
2013-10-5,52.5,50.6,48.9,52.0,49.8,47.8,98,97,91,30.04,29.70,13,0,13,1.26
2013-10-6,56.2,49.0,42.7,53.8,48.1,41.9,100,97,88,29.75,29.64,8,0,13,0.22
2013-10-7,58.7,47.6,41.3,48.7,43.1,39.7,97,85,57,29.99,29.74,12,2,17,0.01
2013-10-8,72.8,59.5,44.2,47.8,43.9,39.4,86,59,37,30.00,29.83,26,8,33,0.00
2013-10-9,72.7,63.2,56.0,53.8,49.0,46.0,72,60,45,30.04,29.90,23,7,25,0.00
2013-10-10,72.3,61.4,49.8,48.8,46.5,43.6,79,59,39,30.06,29.93,14,4,19,0.00
2013-10-11,73.4,62.3,52.0,56.3,51.9,46.7,89,70,51,29.96,29.69,21,6,28,0.00
2013-10-12,64.3,56.1,46.4,55.1,47.1,40.5,90,72,57,30.03,29.66,31,9,31,0.00
2013-10-13,55.9,46.7,36.3,43.9,37.7,31.3,89,72,43,30.41,30.03,12,3,19,0.00
2013-10-14,53.9,45.9,38.0,41.9,35.2,29.5,82,67,52,30.44,30.14,10,2,11,0.00
2013-10-15,49.3,47.1,44.4,48.5,45.3,38.7,97,94,76,30.14,29.70,7,0,12,1.34
2013-10-16,46.3,42.1,38.8,44.1,39.7,35.6,97,91,75,29.89,29.76,11,2,15,0.19
2013-10-17,50.8,43.1,36.6,44.0,39.1,34.3,96,86,72,29.87,29.76,12,2,15,0.13
2013-10-18,46.6,40.9,36.6,42.6,37.4,31.3,97,88,58,29.89,29.77,6,0,11,0.52
2013-10-19,40.8,37.2,30.7,38.2,34.7,29.4,95,91,81,29.82,29.65,11,2,15,0.19
2013-10-20,39.3,33.1,29.6,35.8,31.5,28.4,96,94,84,29.78,29.72,10,1,13,0.14
2013-10-21,33.2,31.4,29.8,32.4,28.9,25.7,97,90,81,29.84,29.75,20,8,27,0.09
2013-10-22,35.3,33.3,30.1,31.6,29.3,26.9,95,85,75,30.01,29.83,10,2,15,0.12
2013-10-23,35.2,32.2,30.1,29.7,26.0,22.0,89,78,60,30.03,29.93,13,4,16,0.01
2013-10-24,37.1,33.7,30.5,32.8,28.6,26.8,96,82,67,30.26,30.02,14,4,17,0.00
2013-10-25,50.2,38.6,29.3,39.6,31.1,26.5,92,75,58,30.27,29.67,25,8,32,0.01
2013-10-26,48.5,40.4,37.0,37.9,34.5,31.3,90,80,66,29.97,29.67,15,2,25,0.04
2013-10-27,48.5,39.3,32.7,35.3,31.3,28.0,85,73,58,30.22,29.79,17,4,24,0.01
2013-10-28,39.6,32.9,26.2,29.1,24.1,21.0,89,70,51,30.50,30.22,13,2,15,0.00
2013-10-29,36.6,32.6,27.8,32.9,28.4,22.4,94,85,69,30.47,30.18,11,2,13,0.10
2013-10-30,49.3,41.6,34.4,48.2,40.2,32.9,96,95,93,30.18,29.69,10,1,16,0.02
2013-10-31,49.8,46.2,42.9,48.7,45.4,42.4,98,97,95,29.69,29.28,11,0,13,0.14
2013-11-1,42.9,39.5,36.5,42.4,38.4,34.9,98,96,93,29.78,29.28,7,2,13,0.07
2013-11-2,43.1,35.9,28.7,34.9,32.2,27.4,96,87,63,30.14,29.78,10,1,12,0.00
2013-11-3,46.1,40.2,0.0,34.7,32.7,0.0,96,75,62,30.19,30.01,19,7,31,0.00
2013-11-4,43.6,41.9,35.7,42.0,37.5,32.3,94,85,72,30.10,29.85,19,7,27,0.22
2013-11-5,44.6,36.8,31.7,34.1,31.2,29.4,95,81,57,30.23,30.02,15,3,18,0.15
2013-11-6,32.9,30.3,26.0,30.9,27.2,21.8,96,88,75,30.13,29.96,13,2,15,0.17
2013-11-7,33.6,28.7,24.3,27.2,23.0,19.9,92,79,65,30.19,30.13,12,2,15,0.02
2013-11-8,35.7,30.5,22.5,32.6,26.0,19.5,92,83,77,30.21,29.65,17,5,25,0.09
2013-11-9,37.1,35.4,33.8,35.4,32.4,30.1,94,89,81,30.04,29.59,22,9,28,0.15
2013-11-10,40.6,35.6,32.2,31.5,28.8,26.9,93,77,60,30.27,30.04,17,6,21,0.00
2013-11-11,32.2,21.8,17.2,30.4,15.0,10.4,93,75,64,30.67,30.07,17,2,22,0.00
2013-11-12,27.0,19.5,12.5,11.6,9.3,7.3,82,65,45,30.73,30.42,14,5,20,0.00
2013-11-13,46.6,33.7,20.2,34.0,23.7,11.6,78,67,51,30.42,29.80,30,12,37,0.00
2013-11-14,44.6,38.5,35.0,34.9,32.2,30.4,85,78,67,29.83,29.73,15,5,18,0.00
2013-11-15,51.1,41.1,34.4,38.6,34.9,31.2,90,79,61,29.83,29.72,14,4,19,0.00
2013-11-16,45.0,42.4,40.9,42.2,39.2,36.4,97,89,76,29.58,29.27,22,5,29,0.55
2013-11-17,49.8,41.2,31.1,48.8,38.5,26.5,97,90,82,29.58,29.25,29,8,31,0.00
2013-11-18,31.1,27.2,25.0,26.6,20.8,18.8,90,77,71,30.27,29.58,22,6,31,0.00
2013-11-19,38.4,30.1,17.6,23.1,19.9,15.0,90,67,49,30.32,29.98,24,6,32,0.00
2013-11-20,42.6,38.3,33.1,31.4,25.8,20.5,91,63,43,30.06,29.95,27,8,30,0.00
2013-11-21,35.0,30.1,22.9,33.5,27.8,19.1,95,91,82,30.47,30.05,13,2,15,0.01
2013-11-22,30.3,22.0,12.5,20.3,13.3,5.4,92,71,37,30.55,30.37,20,4,27,0.02
2013-11-23,13.7,9.3,2.2,7.2,2.3,-2.7,84,73,57,30.78,30.55,11,2,17,0.00
2013-11-24,25.3,13.1,0.1,16.1,4.3,-4.2,83,68,55,30.73,29.90,32,9,42,0.00
2013-11-25,35.9,30.8,25.1,27.7,23.3,15.9,80,73,68,29.97,29.79,37,10,37,0.00
2013-11-26,27.7,16.1,12.6,19.0,9.0,4.3,89,74,55,30.32,29.97,21,3,26,0.00
2013-11-27,22.5,18.1,14.1,18.0,15.0,11.4,91,87,76,30.35,30.15,8,1,9,0.00
2013-11-28,23.9,19.9,17.2,17.8,15.6,14.3,88,83,71,30.51,30.14,12,3,16,0.00
2013-11-29,25.7,19.5,8.7,19.2,14.5,5.9,90,81,71,30.58,30.22,21,5,29,0.00
2013-11-30,34.6,28.9,25.8,26.2,23.1,19.0,90,79,70,30.22,30.04,16,3,25,0.04
2013-12-1,32.0,29.4,26.8,28.9,26.3,23.0,95,88,79,30.18,29.98,6,1,11,0.01
2013-12-2,33.0,28.5,19.7,29.2,25.6,17.6,93,89,84,29.98,29.76,13,2,14,0.00
2013-12-3,30.8,28.6,24.4,29.1,26.4,22.4,95,91,86,29.92,29.76,12,2,14,0.00
2013-12-4,32.0,27.6,24.2,31.0,26.2,22.5,96,94,92,29.92,29.35,4,0,6,0.00
2013-12-5,28.4,9.6,-0.8,25.5,5.5,-5.0,92,83,79,30.24,29.42,0,0,0,0.00
2013-12-6,5.0,-1.4,-6.5,-0.6,-5.9,-10.8,84,81,75,30.60,30.24,14,3,17,0.00
2013-12-7,-0.4,-6.4,-14.5,-6.1,-11.1,-18.9,84,80,75,30.70,30.60,19,5,19,0.00
2013-12-8,9.1,0.8,-9.8,5.8,-3.3,-14.5,86,82,79,30.65,30.08,10,2,15,0.00
2013-12-9,9.1,0.5,-8.1,6.0,-3.9,-12.8,87,81,73,30.08,29.92,21,5,24,0.00
2013-12-10,5.3,-1.2,-7.9,-0.4,-6.0,-11.9,83,80,73,30.25,29.88,19,5,21,0.00
2013-12-11,-1.3,-6.7,-12.0,-5.4,-12.1,-16.7,82,77,68,30.52,30.25,14,6,18,0.00
2013-12-12,9.1,3.1,-7.8,6.8,-1.5,-12.7,92,80,75,30.38,30.22,14,4,22,0.00
2013-12-13,9.9,6.4,3.5,5.5,1.6,-1.0,96,80,71,30.43,30.25,9,1,12,0.00
2013-12-14,16.0,9.3,2.2,11.8,5.3,-1.8,89,83,76,30.42,30.00,16,2,20,0.00
2013-12-15,6.2,-3.7,-14.3,2.3,-8.4,-18.7,92,80,71,30.21,30.01,16,5,21,0.00
2013-12-16,11.3,1.9,-14.4,8.9,-1.9,-18.8,90,84,77,30.20,29.89,19,6,26,0.00
2013-12-17,23.0,16.2,6.5,20.5,12.5,0.8,92,85,76,30.07,29.83,17,5,23,0.00
2013-12-18,25.6,12.4,-1.8,17.9,7.2,-6.3,100,79,66,30.08,29.70,16,3,20,0.00
2013-12-19,18.6,14.9,10.8,15.2,11.9,8.2,90,88,84,30.16,29.82,10,1,13,0.00
2013-12-20,19.6,11.5,2.0,16.4,8.2,-1.0,90,87,80,30.13,29.90,5,0,6,0.00
2013-12-21,20.5,16.3,8.3,16.4,13.3,5.5,92,88,82,30.07,29.91,4,0,5,0.00
2013-12-22,24.3,19.1,13.9,22.3,17.1,11.8,100,92,90,30.18,29.98,3,0,5,0.00
2013-12-23,17.5,13.1,6.1,15.3,10.6,3.3,100,89,82,30.46,30.18,3,0,5,0.00
2013-12-24,14.2,7.6,-2.8,9.6,3.7,-6.2,92,84,78,30.47,30.17,22,4,27,0.00
2013-12-25,16.6,11.9,8.0,12.9,8.1,4.0,89,84,78,30.17,30.05,15,6,20,0.00
2013-12-26,13.8,8.3,1.5,8.7,4.0,-1.7,90,83,71,30.24,30.10,6,1,10,0.00
2013-12-27,33.2,24.6,9.6,30.3,21.7,6.5,92,89,83,30.24,29.81,31,8,36,0.01
2013-12-28,32.3,26.9,15.8,29.3,24.9,13.9,95,92,86,29.99,29.75,11,2,16,0.00
2013-12-29,15.8,-0.3,-13.5,13.9,-4.0,-18.6,92,84,76,30.30,29.99,7,2,10,0.00
2013-12-30,-2.1,-9.6,-18.9,-8.2,-14.7,-23.8,92,78,71,30.36,30.26,9,2,11,0.00
2013-12-31,-5.7,-10.6,-17.7,-10.0,-15.5,-22.2,82,78,71,30.53,30.23,11,3,14,0.00
2014-1-1,0.4,-7.0,-14.8,-4.3,-11.1,-19.0,84,81,78,30.62,30.51,5,0,5,0.00
2014-1-2,4.5,-8.0,-16.6,-1.4,-12.5,-20.9,85,80,73,30.55,30.45,6,0,9,0.00